Time;durP1;ratioP1;P1;durP2;ratioP2;P2;SDS_P1;SDS_P2;PMS_P1;PMS_P2;Temp;Humidity;BMP_temperature;BMP_pressure;BME280_temperature;BME280_humidity;BME280_pressure;Samples;Min_cycle;Max_cycle;Signal;HPM_P1;HPM_P2
2021/08/31 00:02:02;;;;;;;37.38;17.40;;;14.80;99.90;;;;;;4967918;28;20504;-87
2021/08/31 00:04:28;;;;;;;26.45;15.02;;;14.70;99.90;;;;;;4965915;28;20041;-87
2021/08/31 00:06:54;;;;;;;24.73;15.35;;;14.70;99.90;;;;;;4984813;28;20036;-87
2021/08/31 00:09:21;;;;;;;31.30;16.00;;;14.70;99.90;;;;;;5001182;28;20200;-87
2021/08/31 00:11:47;;;;;;;35.05;18.10;;;14.70;99.90;;;;;;4969682;28;20443;-87
2021/08/31 00:14:13;;;;;;;24.42;14.90;;;14.70;99.90;;;;;;4966298;28;20258;-86
2021/08/31 00:16:40;;;;;;;23.70;14.95;;;14.70;99.90;;;;;;4985010;28;20046;-87
2021/08/31 00:19:06;;;;;;;32.40;16.63;;;14.70;99.90;;;;;;4972981;28;20065;-87
2021/08/31 00:21:32;;;;;;;21.95;14.65;;;14.60;99.90;;;;;;4998256;28;20042;-87
2021/08/31 00:23:57;;;;;;;31.40;16.63;;;14.70;99.90;;;;;;4973248;28;20067;-86
2021/08/31 00:26:23;;;;;;;26.55;15.80;;;14.60;99.90;;;;;;4971714;28;20038;-87
2021/08/31 00:28:49;;;;;;;29.33;16.42;;;14.60;99.90;;;;;;4951877;28;20449;-87
2021/08/31 00:31:14;;;;;;;31.50;18.05;;;14.60;99.90;;;;;;4997866;28;20049;-86
2021/08/31 00:33:40;;;;;;;28.17;17.00;;;14.60;99.90;;;;;;4968489;28;20088;-86
2021/08/31 00:36:06;;;;;;;27.85;15.93;;;14.60;99.90;;;;;;4975386;28;20030;-86
2021/08/31 00:38:32;;;;;;;29.35;16.67;;;14.50;99.90;;;;;;4968959;28;20046;-86
2021/08/31 00:40:59;;;;;;;31.70;17.67;;;14.50;99.90;;;;;;4983271;28;20027;-86
2021/08/31 00:43:25;;;;;;;36.58;17.27;;;14.60;99.90;;;;;;4968714;28;20030;-86
2021/08/31 00:45:51;;;;;;;32.03;16.08;;;14.50;99.90;;;;;;4982599;28;20539;-86
2021/08/31 00:48:18;;;;;;;35.92;16.92;;;14.50;99.90;;;;;;4974426;28;20034;-86
2021/08/31 00:50:50;;;;;;;35.38;15.90;;;14.50;99.90;;;;;;4973097;28;20042;-87
2021/08/31 00:53:15;;;;;;;35.50;18.23;;;14.60;99.90;;;;;;4982952;28;20483;-87
2021/08/31 00:55:42;;;;;;;24.77;14.82;;;14.60;99.90;;;;;;4985322;28;20038;-87
2021/08/31 00:58:08;;;;;;;33.28;17.02;;;14.60;99.90;;;;;;4986610;28;20140;-87
2021/08/31 01:00:33;;;;;;;28.90;17.08;;;14.60;99.90;;;;;;4983747;28;20202;-87
2021/08/31 01:02:59;;;;;;;33.22;17.52;;;14.60;99.90;;;;;;4978423;28;20041;-87
2021/08/31 01:05:29;;;;;;;30.95;16.33;;;14.60;99.90;;;;;;4969730;28;20034;-87
2021/08/31 01:07:56;;;;;;;32.08;16.60;;;14.60;99.90;;;;;;4983787;28;20033;-87
2021/08/31 01:10:22;;;;;;;29.67;15.85;;;14.60;99.90;;;;;;4984987;28;20137;-87
2021/08/31 01:12:50;;;;;;;35.90;17.52;;;14.60;99.90;;;;;;4969407;28;20128;-87
2021/08/31 01:15:16;;;;;;;32.13;16.10;;;14.60;99.90;;;;;;4969325;28;20104;-87
2021/08/31 01:17:42;;;;;;;35.72;16.73;;;14.60;99.90;;;;;;4949829;28;20716;-88
2021/08/31 01:20:08;;;;;;;36.53;15.88;;;14.60;99.90;;;;;;5002227;28;20103;-86
2021/08/31 01:22:34;;;;;;;36.33;15.23;;;14.60;99.90;;;;;;4962555;28;20042;-87
2021/08/31 01:25:02;;;;;;;31.63;15.88;;;14.60;99.90;;;;;;4966625;28;20036;-87
2021/08/31 01:27:28;;;;;;;32.63;15.60;;;14.60;99.90;;;;;;4999735;28;20046;-87
2021/08/31 01:29:59;;;;;;;28.63;15.77;;;14.60;99.90;;;;;;5016362;28;20034;-87
2021/08/31 01:32:28;;;;;;;28.52;14.48;;;14.60;99.90;;;;;;4983787;28;20528;-87
2021/08/31 01:34:54;;;;;;;26.02;13.82;;;14.50;99.90;;;;;;4979315;28;20038;-88
2021/08/31 01:37:19;;;;;;;40.38;16.27;;;14.50;99.90;;;;;;4968549;28;20317;-87
2021/08/31 01:39:45;;;;;;;29.65;14.80;;;14.50;99.90;;;;;;4967448;28;20057;-87
2021/08/31 01:42:11;;;;;;;32.83;15.98;;;14.50;99.90;;;;;;4980877;28;20104;-87
2021/08/31 01:44:37;;;;;;;31.15;15.82;;;14.40;99.90;;;;;;4985452;28;20049;-87
2021/08/31 01:47:02;;;;;;;30.42;16.20;;;14.40;99.90;;;;;;4981770;28;20124;-87
2021/08/31 01:49:28;;;;;;;26.55;14.88;;;14.40;99.90;;;;;;4973382;28;20041;-88
2021/08/31 01:51:54;;;;;;;26.85;15.27;;;14.30;99.90;;;;;;4969605;28;20549;-88
2021/08/31 01:54:20;;;;;;;28.88;14.57;;;14.30;99.90;;;;;;4979718;28;20096;-88
2021/08/31 01:56:46;;;;;;;28.73;14.30;;;14.30;99.90;;;;;;4952445;28;20129;-88
2021/08/31 01:59:12;;;;;;;26.17;14.52;;;14.20;99.90;;;;;;4969008;28;20074;-87
2021/08/31 02:01:41;;;;;;;27.48;14.98;;;14.30;99.90;;;;;;4968351;28;20496;-88
2021/08/31 02:04:07;;;;;;;28.90;15.93;;;14.20;99.90;;;;;;4971764;28;20052;-88
2021/08/31 02:06:33;;;;;;;29.00;15.18;;;14.20;99.90;;;;;;4972974;28;20030;-88
2021/08/31 02:08:58;;;;;;;30.67;16.48;;;14.20;99.90;;;;;;4947609;28;20160;-87
2021/08/31 02:11:24;;;;;;;29.30;16.35;;;14.20;99.90;;;;;;4971503;28;20038;-87
2021/08/31 02:13:50;;;;;;;29.20;15.57;;;14.10;99.90;;;;;;4975499;28;20052;-88
2021/08/31 02:16:16;;;;;;;25.67;16.17;;;14.10;99.90;;;;;;4977081;28;20428;-87
2021/08/31 02:18:41;;;;;;;23.70;15.25;;;14.10;99.90;;;;;;4979215;28;20037;-87
2021/08/31 02:21:08;;;;;;;32.50;16.38;;;14.10;99.90;;;;;;4970447;28;20026;-87
2021/08/31 02:23:35;;;;;;;28.27;15.98;;;14.10;99.90;;;;;;4968496;28;20465;-87
2021/08/31 02:26:01;;;;;;;29.73;16.38;;;14.10;99.90;;;;;;4983819;28;20476;-88
2021/08/31 02:28:27;;;;;;;35.78;15.05;;;14.10;99.90;;;;;;4970239;28;20128;-88
2021/08/31 02:30:53;;;;;;;27.15;15.52;;;14.10;99.90;;;;;;4963749;28;20201;-87
2021/08/31 02:33:18;;;;;;;27.45;15.00;;;14.10;99.90;;;;;;4971283;28;20037;-87
2021/08/31 02:35:44;;;;;;;34.10;17.40;;;14.10;99.90;;;;;;4969721;28;20135;-87
2021/08/31 02:38:10;;;;;;;31.75;16.15;;;14.10;99.90;;;;;;4966898;28;20076;-86
2021/08/31 02:40:36;;;;;;;34.60;17.48;;;14.10;99.90;;;;;;4961353;28;20042;-87
2021/08/31 02:43:02;;;;;;;25.17;14.63;;;14.10;99.90;;;;;;4999270;28;20172;-87
2021/08/31 02:45:27;;;;;;;25.35;13.23;;;14.10;99.90;;;;;;4981735;28;20044;-87
2021/08/31 02:47:53;;;;;;;25.70;15.57;;;14.10;99.90;;;;;;4985159;28;20042;-87
2021/08/31 02:50:19;;;;;;;25.27;14.15;;;14.00;99.90;;;;;;4972365;28;20151;-87
2021/08/31 02:52:45;;;;;;;26.40;15.25;;;14.00;99.90;;;;;;4977949;28;20041;-86
2021/08/31 02:55:14;;;;;;;23.52;13.90;;;14.00;99.90;;;;;;4969275;28;20292;-87
2021/08/31 02:57:40;;;;;;;31.63;15.52;;;14.00;99.90;;;;;;4964179;28;20087;-86
2021/08/31 03:00:06;;;;;;;30.88;15.38;;;14.00;99.90;;;;;;4984183;28;20034;-88
2021/08/31 03:02:32;;;;;;;27.95;15.32;;;14.00;99.90;;;;;;4972930;28;20034;-87
2021/08/31 03:04:58;;;;;;;36.50;16.88;;;14.00;99.90;;;;;;4971500;28;20048;-88
2021/08/31 03:07:24;;;;;;;28.58;15.80;;;14.00;99.90;;;;;;4970000;28;20029;-87
2021/08/31 03:09:50;;;;;;;28.30;14.75;;;14.00;99.90;;;;;;4949416;28;20515;-86
2021/08/31 03:12:15;;;;;;;33.30;15.15;;;14.00;99.90;;;;;;4968737;28;20420;-87
2021/08/31 03:14:41;;;;;;;28.95;14.65;;;14.00;99.90;;;;;;4991545;28;20053;-86
2021/08/31 03:17:07;;;;;;;30.85;15.35;;;14.00;99.90;;;;;;4981135;28;20048;-87
2021/08/31 03:19:34;;;;;;;37.30;16.65;;;14.00;99.90;;;;;;5005583;28;20096;-86
2021/08/31 03:22:02;;;;;;;33.50;17.02;;;14.00;99.90;;;;;;4967778;28;20065;-86
2021/08/31 03:24:28;;;;;;;29.65;14.75;;;14.00;99.90;;;;;;4989300;28;20041;-87
2021/08/31 03:26:54;;;;;;;39.35;16.67;;;14.00;99.90;;;;;;4998696;28;20397;-86
2021/08/31 03:29:20;;;;;;;33.47;15.82;;;14.00;99.90;;;;;;4990310;28;20042;-86
2021/08/31 03:31:46;;;;;;;43.33;15.60;;;14.00;99.90;;;;;;4973844;28;20073;-86
2021/08/31 03:34:12;;;;;;;36.00;17.30;;;14.00;99.90;;;;;;4969322;28;20048;-87
2021/08/31 03:36:38;;;;;;;33.17;16.13;;;14.10;99.90;;;;;;4970899;28;20500;-86
2021/08/31 03:39:04;;;;;;;39.00;15.35;;;14.10;99.90;;;;;;4984658;28;20034;-86
2021/08/31 03:41:30;;;;;;;28.13;14.95;;;14.10;99.90;;;;;;4967003;28;20042;-86
2021/08/31 03:43:56;;;;;;;28.85;14.93;;;14.10;99.90;;;;;;4967759;28;20040;-86
2021/08/31 03:46:22;;;;;;;42.38;16.67;;;14.10;99.90;;;;;;4986385;28;20073;-88
2021/08/31 03:48:48;;;;;;;28.08;15.98;;;14.10;99.90;;;;;;4970458;28;20080;-86
2021/08/31 03:51:14;;;;;;;38.75;16.50;;;14.20;99.90;;;;;;4970630;28;20079;-87
2021/08/31 03:53:39;;;;;;;35.92;16.45;;;14.10;99.90;;;;;;4983687;28;20080;-87
2021/08/31 03:56:05;;;;;;;38.25;15.80;;;14.20;99.90;;;;;;4969482;28;20547;-87
2021/08/31 03:58:31;;;;;;;37.20;17.60;;;14.20;99.90;;;;;;4966519;28;20037;-86
2021/08/31 04:00:57;;;;;;;35.38;16.25;;;14.20;99.90;;;;;;4946956;28;20046;-87
2021/08/31 04:03:22;;;;;;;41.35;17.95;;;14.20;99.90;;;;;;4955146;28;20378;-87
2021/08/31 04:05:48;;;;;;;38.80;17.15;;;14.30;99.90;;;;;;4971016;28;20040;-87
2021/08/31 04:08:14;;;;;;;35.55;16.30;;;14.30;99.90;;;;;;4971862;28;21319;-86
2021/08/31 04:10:40;;;;;;;40.53;17.13;;;14.30;99.90;;;;;;4983959;28;20041;-86
2021/08/31 04:13:07;;;;;;;45.63;19.08;;;14.30;99.90;;;;;;4981835;28;20077;-86
2021/08/31 04:15:34;;;;;;;41.15;18.95;;;14.40;99.90;;;;;;4953767;28;20104;-85
2021/08/31 04:18:00;;;;;;;34.60;17.63;;;14.40;99.90;;;;;;4992073;28;20309;-87
2021/08/31 04:20:25;;;;;;;45.83;19.33;;;14.50;99.90;;;;;;4968698;28;20030;-86
2021/08/31 04:22:51;;;;;;;34.13;16.38;;;14.50;99.90;;;;;;4970837;28;20046;-86
2021/08/31 04:25:17;;;;;;;36.92;18.10;;;14.50;99.90;;;;;;4969891;28;20060;-86
2021/08/31 04:27:43;;;;;;;37.92;18.20;;;14.50;99.90;;;;;;4969143;28;20041;-86
2021/08/31 04:30:09;;;;;;;33.30;16.33;;;14.60;99.90;;;;;;4955064;28;20037;-86
2021/08/31 04:32:35;;;;;;;43.25;18.45;;;14.60;99.90;;;;;;4968860;28;20412;-86
2021/08/31 04:35:04;;;;;;;39.38;18.95;;;14.60;99.90;;;;;;4986038;28;20053;-87
2021/08/31 04:37:31;;;;;;;46.13;19.70;;;14.70;99.90;;;;;;4981788;28;20628;-86
2021/08/31 04:43:38;;;;;;;39.33;16.77;;;14.70;99.90;;;;;;4998133;28;20076;-87
2021/08/31 04:46:03;;;;;;;37.72;16.35;;;14.80;99.90;;;;;;4968931;28;20124;-87
2021/08/31 04:48:29;;;;;;;40.05;18.17;;;14.70;99.90;;;;;;4984997;28;20079;-87
2021/08/31 04:50:55;;;;;;;37.80;16.75;;;14.70;99.90;;;;;;4970971;28;20038;-86
2021/08/31 04:53:22;;;;;;;36.75;16.50;;;14.80;99.90;;;;;;4969839;28;20042;-86
2021/08/31 04:55:49;;;;;;;43.63;17.58;;;14.80;99.90;;;;;;4985990;28;20073;-85
2021/08/31 04:58:15;;;;;;;35.47;15.88;;;14.80;99.90;;;;;;4984952;28;20037;-87
2021/08/31 05:00:41;;;;;;;34.13;16.92;;;14.70;99.90;;;;;;4999326;28;20107;-87
2021/08/31 05:03:07;;;;;;;45.17;18.00;;;14.70;99.90;;;;;;4986686;28;20956;-86
2021/08/31 05:05:32;;;;;;;35.40;16.20;;;14.80;99.90;;;;;;4991893;28;20661;-87
2021/08/31 05:07:58;;;;;;;47.30;16.70;;;14.80;99.90;;;;;;4985421;28;20081;-86
2021/08/31 05:10:24;;;;;;;38.58;18.17;;;14.80;99.90;;;;;;4983931;28;20144;-86
2021/08/31 05:12:50;;;;;;;34.05;16.30;;;14.80;99.90;;;;;;4967122;28;20468;-86
2021/08/31 05:15:16;;;;;;;37.60;15.57;;;14.80;99.90;;;;;;4971900;28;20049;-87
2021/08/31 05:17:43;;;;;;;38.47;17.00;;;14.80;99.90;;;;;;4966578;28;20077;-88
2021/08/31 05:20:09;;;;;;;41.85;16.48;;;14.90;99.90;;;;;;4962635;28;20074;-88
2021/08/31 05:22:35;;;;;;;40.17;16.25;;;14.80;99.90;;;;;;4982882;28;20038;-88
2021/08/31 05:25:02;;;;;;;40.13;16.88;;;14.90;99.90;;;;;;4984154;28;20069;-87
2021/08/31 05:27:28;;;;;;;37.63;16.65;;;14.90;99.90;;;;;;5000678;28;20500;-86
2021/08/31 05:29:54;;;;;;;37.90;17.15;;;14.90;99.90;;;;;;4971095;28;20559;-88
2021/08/31 05:32:20;;;;;;;45.38;18.20;;;14.90;99.90;;;;;;4974312;28;20049;-86
2021/08/31 05:34:46;;;;;;;42.75;17.63;;;15.00;99.90;;;;;;4993607;28;20038;-87
2021/08/31 05:37:12;;;;;;;49.60;19.20;;;15.00;99.90;;;;;;4978255;28;20049;-87
2021/08/31 05:39:39;;;;;;;49.40;19.08;;;15.10;99.90;;;;;;4985288;28;20057;-86
2021/08/31 05:42:07;;;;;;;46.88;18.50;;;15.10;99.90;;;;;;4995049;28;20033;-86
2021/08/31 05:44:34;;;;;;;41.63;18.50;;;15.10;99.90;;;;;;4973518;28;20030;-86
2021/08/31 05:47:00;;;;;;;40.88;17.63;;;15.20;99.90;;;;;;4988014;28;20579;-88
2021/08/31 05:49:26;;;;;;;45.42;17.23;;;15.20;99.90;;;;;;4991282;28;20034;-88
2021/08/31 05:51:53;;;;;;;46.63;19.35;;;15.30;99.90;;;;;;4995754;28;20044;-87
2021/08/31 05:54:20;;;;;;;46.90;18.63;;;15.30;99.90;;;;;;4973859;28;20038;-87
2021/08/31 05:56:47;;;;;;;36.42;16.15;;;15.40;99.90;;;;;;4992583;28;20041;-89
2021/08/31 05:59:14;;;;;;;46.38;17.55;;;15.40;99.90;;;;;;4997735;28;20065;-87
2021/08/31 06:01:41;;;;;;;39.97;18.15;;;15.50;99.90;;;;;;4983778;28;20057;-87
2021/08/31 06:04:07;;;;;;;38.97;17.30;;;15.60;99.90;;;;;;4974317;28;20049;-87
2021/08/31 06:06:33;;;;;;;37.65;17.38;;;15.60;99.90;;;;;;4972279;28;20046;-87
2021/08/31 06:08:59;;;;;;;43.50;17.13;;;15.70;99.90;;;;;;4989574;28;20045;-88
2021/08/31 06:11:25;;;;;;;41.05;15.30;;;15.70;99.90;;;;;;4975839;28;20037;-88
2021/08/31 06:13:50;;;;;;;40.50;17.38;;;15.80;99.90;;;;;;4971566;28;21811;-88
2021/08/31 06:16:16;;;;;;;34.60;16.02;;;15.80;99.90;;;;;;4976917;28;20136;-87
2021/08/31 06:18:42;;;;;;;37.70;15.88;;;15.80;99.90;;;;;;4974346;28;20186;-88
2021/08/31 06:21:08;;;;;;;33.22;15.23;;;15.90;99.90;;;;;;4999329;28;20034;-88
2021/08/31 06:23:33;;;;;;;32.05;16.08;;;15.90;99.90;;;;;;4978079;28;20029;-87
2021/08/31 06:25:59;;;;;;;37.80;16.42;;;16.00;99.90;;;;;;4979931;28;20294;-87
2021/08/31 06:28:26;;;;;;;43.17;16.13;;;16.10;99.90;;;;;;4995198;28;20224;-87
2021/08/31 06:30:51;;;;;;;29.10;13.77;;;16.10;99.90;;;;;;4970888;28;20132;-89
2021/08/31 06:33:17;;;;;;;36.35;16.20;;;16.20;99.90;;;;;;4973242;28;20558;-86
2021/08/31 06:36:12;;;;;;;39.42;14.73;;;16.30;99.90;;;;;;4980460;28;20414;-88
2021/08/31 06:42:39;;;;;;;30.90;13.90;;;16.40;99.90;;;;;;4948898;28;20530;-88
2021/08/31 06:45:05;;;;;;;29.85;13.93;;;16.50;99.90;;;;;;4997989;28;20046;-87
2021/08/31 06:47:31;;;;;;;30.15;13.77;;;16.50;99.90;;;;;;4971471;28;20432;-88
2021/08/31 06:49:57;;;;;;;30.45;13.57;;;16.50;99.90;;;;;;4970646;28;20052;-87
2021/08/31 06:52:22;;;;;;;31.20;13.25;;;16.60;99.90;;;;;;4979131;28;20041;-89
2021/08/31 06:54:48;;;;;;;26.95;12.48;;;16.60;99.90;;;;;;4989008;28;20108;-89
2021/08/31 06:57:14;;;;;;;32.17;13.60;;;16.70;99.90;;;;;;4970158;28;20096;-89
2021/08/31 06:59:39;;;;;;;28.27;13.38;;;16.80;99.90;;;;;;4974150;28;20416;-87
2021/08/31 07:02:06;;;;;;;30.02;12.57;;;16.80;99.90;;;;;;4982549;28;20535;-87
2021/08/31 07:04:31;;;;;;;25.63;12.13;;;16.90;99.90;;;;;;4981174;28;20061;-88
2021/08/31 07:06:57;;;;;;;23.95;11.43;;;17.00;99.90;;;;;;4960364;28;20563;-88
2021/08/31 07:09:23;;;;;;;23.55;11.00;;;17.00;99.90;;;;;;4972120;28;20037;-89
2021/08/31 07:11:48;;;;;;;29.23;11.70;;;17.10;99.90;;;;;;4985056;28;20045;-87
2021/08/31 07:14:14;;;;;;;30.63;11.65;;;17.10;99.90;;;;;;4978307;28;20069;-88
2021/08/31 07:16:40;;;;;;;23.63;11.82;;;17.10;99.90;;;;;;4958741;28;20097;-88
2021/08/31 07:19:06;;;;;;;28.92;11.60;;;17.20;99.90;;;;;;4982802;28;20045;-89
2021/08/31 07:21:32;;;;;;;26.02;10.95;;;17.20;99.90;;;;;;4968913;28;20096;-89
2021/08/31 07:23:57;;;;;;;25.88;11.98;;;17.20;99.90;;;;;;4985757;28;20041;-89
2021/08/31 07:26:23;;;;;;;23.35;12.23;;;17.20;99.90;;;;;;4977316;28;20049;-87
2021/08/31 07:28:49;;;;;;;25.40;11.45;;;17.20;99.90;;;;;;4993375;28;20041;-90
2021/08/31 07:31:17;;;;;;;24.90;12.60;;;17.20;99.90;;;;;;4978100;28;20072;-89
2021/08/31 07:33:43;;;;;;;25.20;12.05;;;17.30;99.90;;;;;;4990537;28;20045;-89
2021/08/31 07:36:12;;;;;;;20.23;11.15;;;17.30;99.90;;;;;;4990561;28;20061;-88
2021/08/31 07:38:38;;;;;;;20.17;10.93;;;17.30;99.90;;;;;;4979154;28;20073;-87
2021/08/31 07:41:03;;;;;;;23.95;10.23;;;17.40;99.90;;;;;;4984916;28;20232;-87
2021/08/31 07:43:29;;;;;;;19.08;9.20;;;17.40;99.90;;;;;;4982821;28;20065;-88
2021/08/31 07:45:55;;;;;;;21.33;9.43;;;17.40;99.90;;;;;;4994546;28;20172;-88
2021/08/31 07:48:23;;;;;;;24.60;10.13;;;17.40;99.90;;;;;;4988196;28;20408;-91
2021/08/31 07:50:57;;;;;;;17.58;9.35;;;17.40;99.90;;;;;;4990450;28;20053;-88
2021/08/31 07:53:22;;;;;;;21.55;8.82;;;17.50;99.90;;;;;;4994090;28;20133;-84
2021/08/31 07:55:48;;;;;;;18.83;9.90;;;17.50;99.90;;;;;;4992057;28;20084;-87
2021/08/31 07:58:14;;;;;;;21.13;9.60;;;17.50;99.90;;;;;;4993872;28;20042;-86
2021/08/31 08:00:41;;;;;;;18.95;10.73;;;17.60;99.90;;;;;;4997102;28;20054;-85
2021/08/31 08:03:06;;;;;;;22.58;10.63;;;17.70;99.90;;;;;;4998844;28;20042;-88
2021/08/31 08:05:32;;;;;;;19.52;10.45;;;17.80;99.90;;;;;;4986441;28;20041;-87
2021/08/31 08:07:58;;;;;;;18.90;9.85;;;17.80;99.90;;;;;;4986538;28;20218;-88
2021/08/31 08:10:23;;;;;;;19.65;10.30;;;17.90;99.90;;;;;;4982973;28;20085;-87
2021/08/31 08:12:58;;;;;;;19.23;8.98;;;17.90;99.90;;;;;;4982240;28;20029;-87
2021/08/31 08:15:24;;;;;;;17.23;8.90;;;18.10;99.90;;;;;;5007641;28;20053;-87
2021/08/31 08:17:50;;;;;;;18.77;8.98;;;18.10;99.90;;;;;;4996727;28;20111;-87
2021/08/31 08:20:17;;;;;;;19.15;9.27;;;18.10;99.90;;;;;;4998873;28;20571;-87
2021/08/31 08:22:44;;;;;;;19.73;9.93;;;18.10;99.90;;;;;;4980582;28;20052;-88
2021/08/31 08:25:10;;;;;;;17.25;8.90;;;18.10;99.90;;;;;;4991869;28;20038;-88
2021/08/31 08:27:39;;;;;;;18.50;9.32;;;18.20;99.90;;;;;;5005597;28;20040;-88
2021/08/31 08:30:06;;;;;;;19.55;9.90;;;18.20;99.90;;;;;;4988995;28;20038;-87
2021/08/31 08:32:32;;;;;;;23.58;9.68;;;18.30;99.90;;;;;;4989219;28;20040;-89
2021/08/31 08:34:58;;;;;;;18.95;9.38;;;18.40;99.90;;;;;;4988292;28;20042;-86
2021/08/31 08:37:24;;;;;;;18.48;9.75;;;18.40;99.90;;;;;;4986019;28;20049;-87
2021/08/31 08:39:49;;;;;;;18.90;9.63;;;18.50;99.90;;;;;;4986518;28;20055;-88
2021/08/31 08:42:15;;;;;;;17.13;8.75;;;18.50;99.90;;;;;;5000376;28;20042;-87
2021/08/31 08:44:41;;;;;;;15.00;8.02;;;18.50;99.90;;;;;;4973728;28;20535;-88
2021/08/31 08:47:10;;;;;;;21.40;8.52;;;18.50;99.90;;;;;;4988974;28;20061;-87
2021/08/31 08:49:39;;;;;;;20.08;8.63;;;18.50;99.90;;;;;;4992387;28;20588;-85
2021/08/31 08:52:06;;;;;;;22.40;9.02;;;18.60;99.90;;;;;;4989577;28;20034;-88
2021/08/31 08:54:31;;;;;;;17.95;7.78;;;18.60;99.90;;;;;;4990495;28;21531;-88
2021/08/31 08:56:57;;;;;;;19.67;7.55;;;18.70;99.90;;;;;;4988159;28;20041;-87
2021/08/31 08:59:24;;;;;;;17.42;6.68;;;18.80;99.90;;;;;;4972901;28;20044;-87
2021/08/31 09:01:52;;;;;;;16.85;6.18;;;18.80;99.90;;;;;;4974028;28;20038;-87
2021/08/31 09:04:21;;;;;;;16.35;6.40;;;18.90;99.90;;;;;;4996155;28;20463;-87
2021/08/31 09:06:47;;;;;;;17.40;5.85;;;18.90;99.40;;;;;;4972634;28;20045;-88
2021/08/31 09:09:15;;;;;;;18.02;5.88;;;18.90;99.60;;;;;;4993179;28;20041;-88
2021/08/31 09:11:47;;;;;;;23.15;6.40;;;19.00;99.40;;;;;;4988010;28;20373;-87
2021/08/31 09:14:25;;;;;;;;;;;19.10;99.20;;;;;;5014405;28;20045;-88
2021/08/31 09:16:54;;;;;;;20.98;5.53;;;19.00;99.50;;;;;;5011143;28;20272;-89
2021/08/31 09:19:51;;;;;;;17.92;5.60;;;19.00;99.50;;;;;;5016370;28;20045;-89
2021/08/31 09:22:27;;;;;;;19.88;5.43;;;18.90;99.30;;;;;;4989997;28;20038;-88
2021/08/31 09:25:01;;;;;;;16.95;5.93;;;18.80;99.30;;;;;;5007662;28;20034;-87
2021/08/31 09:27:43;;;;;;;15.90;6.22;;;18.80;99.10;;;;;;4998647;28;20029;-88
2021/08/31 09:30:24;;;;;;;19.45;5.82;;;18.70;99.00;;;;;;4992959;28;20256;-89
2021/08/31 09:33:15;;;;;;;16.75;5.55;;;18.70;99.30;;;;;;4998181;28;20037;-90
2021/08/31 09:36:15;;;;;;;14.57;5.53;;;18.70;99.20;;;;;;4995003;28;20045;-88
2021/08/31 09:38:56;;;;;;;14.63;5.43;;;18.70;99.00;;;;;;4996117;28;20184;-88
2021/08/31 09:41:34;;;;;;;21.92;5.75;;;18.60;99.00;;;;;;5004065;28;20042;-87
2021/08/31 09:44:23;;;;;;;13.90;4.97;;;18.60;99.10;;;;;;5012797;28;20177;-88
2021/08/31 09:46:59;;;;;;;18.52;5.78;;;18.60;99.60;;;;;;4997877;28;20071;-88
2021/08/31 09:49:31;;;;;;;11.85;5.20;;;18.70;99.30;;;;;;4999591;28;20448;-86
2021/08/31 09:52:11;;;;;;;16.27;5.53;;;18.80;98.90;;;;;;5007420;28;20492;-87
2021/08/31 09:54:42;;;;;;;19.48;5.38;;;18.90;98.40;;;;;;5007103;28;20050;-87
2021/08/31 09:57:34;;;;;;;19.08;6.25;;;19.00;98.20;;;;;;4987999;28;20099;-88
2021/08/31 10:00:09;;;;;;;17.80;5.50;;;19.00;98.10;;;;;;4989793;28;20048;-86
2021/08/31 10:02:36;;;;;;;14.48;5.75;;;19.10;98.40;;;;;;5004787;28;20041;-86
2021/08/31 10:05:05;;;;;;;18.92;5.40;;;19.10;98.10;;;;;;4990111;28;20641;-87
2021/08/31 10:07:31;;;;;;;18.50;6.03;;;19.00;97.80;;;;;;4989628;28;20476;-88
2021/08/31 10:09:58;;;;;;;19.45;5.20;;;19.10;97.80;;;;;;4978814;28;20434;-88
2021/08/31 10:12:24;;;;;;;19.67;5.60;;;19.00;97.20;;;;;;4987511;28;20105;-87
2021/08/31 10:14:55;;;;;;;19.48;6.05;;;19.00;97.30;;;;;;5001045;28;20041;-88
2021/08/31 10:17:27;;;;;;;17.83;5.32;;;18.90;97.10;;;;;;4992134;28;20041;-88
2021/08/31 10:19:59;;;;;;;18.08;5.95;;;18.80;97.20;;;;;;5006562;28;20048;-89
2021/08/31 10:22:32;;;;;;;17.20;5.35;;;18.80;97.40;;;;;;4975931;28;20037;-88
2021/08/31 10:25:01;;;;;;;19.38;5.80;;;18.80;97.70;;;;;;4989133;28;20125;-88
2021/08/31 10:27:35;;;;;;;15.30;5.72;;;18.90;98.10;;;;;;4973953;28;20197;-86
2021/08/31 10:30:19;;;;;;;16.73;5.53;;;19.00;97.90;;;;;;5004944;28;20038;-88
2021/08/31 10:32:57;;;;;;;19.85;5.68;;;19.10;97.40;;;;;;5008203;28;20104;-87
2021/08/31 10:35:32;;;;;;;14.98;6.03;;;19.10;97.20;;;;;;4974486;28;20061;-88
2021/08/31 10:38:00;;;;;;;16.65;5.65;;;19.10;97.30;;;;;;5008477;28;20175;-89
2021/08/31 10:40:39;;;;;;;19.27;5.72;;;19.00;97.20;;;;;;4989824;28;20042;-89
2021/08/31 10:43:10;;;;;;;22.70;6.05;;;19.00;97.20;;;;;;4991227;28;20548;-91
2021/08/31 10:45:46;;;;;;;17.58;5.50;;;19.00;97.20;;;;;;4981806;28;20066;-89
2021/08/31 10:48:58;;;;;;;16.58;5.43;;;19.00;97.00;;;;;;5000166;28;20038;-83
2021/08/31 10:51:24;;;;;;;18.58;5.20;;;19.10;97.00;;;;;;4958548;28;20542;-86
2021/08/31 10:53:49;;;;;;;16.42;4.93;;;19.20;96.50;;;;;;4974550;28;20131;-86
2021/08/31 10:56:25;;;;;;;19.42;5.30;;;19.20;96.30;;;;;;4987422;28;20099;-87
2021/08/31 10:58:55;;;;;;;15.48;5.03;;;19.20;96.40;;;;;;5008088;28;20108;-87
2021/08/31 11:01:27;;;;;;;16.25;5.20;;;19.20;96.20;;;;;;4994034;28;20038;-89
2021/08/31 11:03:55;;;;;;;14.30;5.23;;;19.20;96.50;;;;;;5000931;28;20060;-87
2021/08/31 11:06:32;;;;;;;17.88;5.28;;;19.30;96.10;;;;;;5001050;28;20288;-87
2021/08/31 11:09:17;;;;;;;13.63;4.95;;;19.40;96.10;;;;;;4987935;28;20037;-88
2021/08/31 11:11:57;;;;;;;18.88;5.40;;;19.40;95.90;;;;;;4984955;28;20038;-86
2021/08/31 11:14:23;;;;;;;16.50;6.13;;;19.40;95.80;;;;;;4989150;28;20169;-84
2021/08/31 11:17:08;;;;;;;17.55;5.80;;;19.40;95.60;;;;;;4985831;28;20087;-88
2021/08/31 11:19:34;;;;;;;19.45;6.03;;;19.50;95.60;;;;;;4992261;28;20042;-88
2021/08/31 11:22:00;;;;;;;20.15;5.80;;;19.50;95.30;;;;;;4985078;28;20049;-87
2021/08/31 11:24:26;;;;;;;16.70;5.60;;;19.60;95.10;;;;;;4984771;28;20042;-86
2021/08/31 11:27:00;;;;;;;16.08;5.10;;;19.60;95.00;;;;;;4986890;28;20040;-87
2021/08/31 11:29:26;;;;;;;20.55;5.43;;;19.60;94.80;;;;;;5001464;28;20167;-85
2021/08/31 11:32:00;;;;;;;17.23;5.50;;;19.60;94.90;;;;;;4996642;28;20653;-87
2021/08/31 11:34:26;;;;;;;21.98;5.53;;;19.70;94.90;;;;;;5000920;28;20880;-88
2021/08/31 11:37:03;;;;;;;19.50;5.45;;;19.60;94.80;;;;;;4995594;28;20077;-86
2021/08/31 11:39:29;;;;;;;17.83;5.57;;;19.60;94.70;;;;;;5008407;28;20574;-86
2021/08/31 11:41:55;;;;;;;19.17;5.70;;;19.60;94.80;;;;;;5007298;28;20065;-88
2021/08/31 11:44:21;;;;;;;15.32;4.57;;;19.60;94.90;;;;;;4988867;28;20057;-87
2021/08/31 11:46:49;;;;;;;14.55;4.80;;;19.60;94.80;;;;;;4989401;28;20038;-87
2021/08/31 11:49:24;;;;;;;24.20;5.90;;;19.60;94.70;;;;;;5004760;28;20343;-87
2021/08/31 11:52:15;;;;;;;17.58;5.30;;;19.50;94.90;;;;;;4986624;28;20053;-88
2021/08/31 11:54:45;;;;;;;23.63;5.40;;;19.50;95.10;;;;;;4990657;28;20045;-87
2021/08/31 11:57:18;;;;;;;19.25;5.15;;;19.60;94.90;;;;;;4992762;28;20037;-88
2021/08/31 11:59:44;;;;;;;;;;;19.60;95.10;;;;;;4989930;28;20120;-90
2021/08/31 12:02:37;;;;;;;12.50;4.18;;;19.50;94.80;;;;;;4975886;28;19917;-88
2021/08/31 12:05:06;;;;;;;15.95;5.00;;;19.60;94.50;;;;;;4989810;28;20126;-88
2021/08/31 12:07:41;;;;;;;15.18;5.22;;;19.50;94.80;;;;;;4990874;28;20045;-88
2021/08/31 12:10:09;;;;;;;12.85;4.63;;;19.60;94.60;;;;;;4989175;28;20034;-87
2021/08/31 12:12:37;;;;;;;31.17;5.60;;;19.60;93.70;;;;;;4989191;28;20030;-87
2021/08/31 12:15:07;;;;;;;17.05;5.47;;;19.60;93.40;;;;;;4983621;28;20038;-87
2021/08/31 12:17:45;;;;;;;20.60;5.53;;;19.60;93.20;;;;;;4989305;28;20045;-86
2021/08/31 12:20:17;;;;;;;19.88;5.15;;;19.60;93.40;;;;;;5003814;28;20042;-87
2021/08/31 12:22:45;;;;;;;17.67;5.20;;;19.60;94.00;;;;;;5001687;28;20093;-88
2021/08/31 12:25:13;;;;;;;20.05;4.85;;;19.70;94.10;;;;;;4992801;28;20100;-88
2021/08/31 12:27:44;;;;;;;16.60;4.90;;;19.60;94.40;;;;;;4987200;28;20151;-88
2021/08/31 12:30:43;;;;;;;15.38;4.78;;;19.50;94.50;;;;;;4979977;28;20053;-87
2021/08/31 12:33:13;;;;;;;18.13;4.40;;;19.60;94.60;;;;;;4983536;28;20080;-86
2021/08/31 12:35:43;;;;;;;17.30;4.78;;;19.60;94.40;;;;;;5005217;28;20133;-88
2021/08/31 12:38:14;;;;;;;14.82;4.78;;;19.60;94.30;;;;;;5000804;28;20048;-88
2021/08/31 12:41:10;;;;;;;16.83;4.82;;;19.60;94.20;;;;;;5004245;28;20049;-88
2021/08/31 12:43:48;;;;;;;14.25;4.70;;;19.60;94.60;;;;;;4989745;28;20112;-87
2021/08/31 12:46:34;;;;;;;14.32;4.82;;;19.70;94.50;;;;;;4991303;28;20124;-87